Etusivu
METAR-TAF:

METAR-TAF

Lentoasemat :

Åre Östersundin lentoasema

Östersund-Frösön, Ruotsi

Leveyspiiri: 63-11N, Pituuspiiri: 014-30E, korkeus merenpinnasta: 376 m

Tämänhetkinen sää

Tämä raportti tehtiin 12 minuuttia sitten, kello 09.50 UTC
Tuuli 3 kn idästä/koillisesta
Lämpötila -3°C
Kosteus 100%
Ilmanpaine 1011 hPa
Näkyvyys: 4500 m
Pilvistä 2500 ft:n korkeudessa
heikkoa lumisadetta, utua

METAR: ESNZ 170950Z 06003KT 4500 -SN BR OVC025 M03/M03 Q1011

Aika: 11:02 (10:02 UTC)

Sääennuste

Tämä raportti tehtiin 1 tunti ja 32 minuuttia sitten, kello 08.30 UTC
Ennuste voimassa 17. päivästä klo 09 UTC - 17. päivään klo 18 UTC
Tuuli 4 kn idästä/koillisesta
Näkyvyys: 2000 m
800 ft:n korkeudessa
heikkoa lumisadetta
Ajoittain
17. päivästä klo 09 UTC - 17. päivään klo 18 UTC
Näkyvyys: 5000 m
Hajonneita pilviä 1500 ft:n korkeudessa

TAF: ESNZ 170830Z 1709/1718 06004KT 2000 -SN VV008 TEMPO 1709/1718 5000 BKN015

Säähavainnot ja -ennusteet yli 4000 lentoasemalta (METAR- ja TAF-raportit).

Käytössä olevat sääasemat on merkitty karttaan keltaisilla ja punaisilla pisteillä.

Aseta hiiri pisteen päälle nähdäksesi sääaseman nimen.

Klikkaa sitten nähdäksesi säähavainnot ja -ennusteet.

Kartan vaihtaminen: klikkaa mustalla rastilla varustettuja vihreitä pisteitä, niin voit zoomata sisään; viivalla varustettua vihreää pistettä, niin voit zoomata ulos tai vihreitä nuolia, niin pääset viereisille kartoille.


METAR-TAF: